Time;durP1;ratioP1;P1;durP2;ratioP2;P2;SDS_P1;SDS_P2;PMS_P1;PMS_P2;Temp;Humidity;BMP_temperature;BMP_pressure;BME280_temperature;BME280_humidity;BME280_pressure;Samples;Min_cycle;Max_cycle;Signal;HPM_P1;HPM_P2
2024/01/20 00:00:46;;;;;;;9.45;8.63;;;;;;;;;;10354526;28;20372;-77
2024/01/20 00:05:46;;;;;;;7.93;7.25;;;;;;;;;;10368173;28;20033;-77
2024/01/20 00:10:46;;;;;;;7.75;7.10;;;;;;;;;;10366971;28;20279;-77
2024/01/20 00:15:47;;;;;;;8.35;7.57;;;;;;;;;;10339131;28;20034;-76
2024/01/20 00:20:47;;;;;;;7.88;7.18;;;;;;;;;;10376198;28;20349;-77
2024/01/20 00:25:47;;;;;;;7.82;7.13;;;;;;;;;;10375099;28;20040;-78
2024/01/20 00:30:48;;;;;;;11.20;10.30;;;;;;;;;;10376687;28;20026;-76
2024/01/20 00:35:48;;;;;;;7.45;6.75;;;;;;;;;;10376360;28;20041;-77
2024/01/20 00:40:48;;;;;;;8.15;7.47;;;;;;;;;;10358064;28;20044;-78
2024/01/20 00:45:48;;;;;;;5.72;5.15;;;;;;;;;;10376209;28;20022;-76
2024/01/20 00:50:49;;;;;;;10.10;9.27;;;;;;;;;;10376072;28;20022;-77
2024/01/20 00:55:49;;;;;;;7.90;7.20;;;;;;;;;;10375959;28;20312;-77
2024/01/20 01:00:49;;;;;;;8.10;7.32;;;;;;;;;;10376383;28;20068;-76
2024/01/20 01:05:49;;;;;;;8.02;7.28;;;;;;;;;;10375994;28;20018;-78
2024/01/20 01:10:50;;;;;;;7.83;7.13;;;;;;;;;;10375954;28;20018;-77
2024/01/20 01:15:50;;;;;;;8.02;7.32;;;;;;;;;;10375352;28;20014;-78
2024/01/20 01:20:50;;;;;;;8.57;7.80;;;;;;;;;;10376393;28;20073;-77
2024/01/20 01:25:52;;;;;;;8.35;7.63;;;;;;;;;;10375633;28;20071;-76
2024/01/20 01:30:52;;;;;;;9.43;8.63;;;;;;;;;;10375372;28;20041;-77
2024/01/20 01:35:52;;;;;;;8.10;7.43;;;;;;;;;;10375276;28;20041;-77
2024/01/20 01:40:52;;;;;;;8.02;7.32;;;;;;;;;;10376168;28;20056;-77
2024/01/20 01:45:52;;;;;;;8.45;7.68;;;;;;;;;;10381408;28;20025;-77
2024/01/20 01:50:53;;;;;;;8.33;7.57;;;;;;;;;;10383120;28;20239;-76
2024/01/20 01:55:54;;;;;;;9.38;8.68;;;;;;;;;;10383969;28;20158;-78
2024/01/20 02:00:54;;;;;;;8.68;8.05;;;;;;;;;;10383129;28;20025;-77
2024/01/20 02:05:55;;;;;;;11.23;10.52;;;;;;;;;;10382545;28;20137;-79
2024/01/20 02:10:55;;;;;;;11.85;10.98;;;;;;;;;;10382572;28;20081;-75
2024/01/20 02:15:55;;;;;;;9.30;8.55;;;;;;;;;;10381870;28;20052;-75
2024/01/20 02:20:56;;;;;;;12.65;11.85;;;;;;;;;;10382241;28;20089;-75
2024/01/20 02:25:56;;;;;;;12.82;12.07;;;;;;;;;;10382065;28;20018;-76
2024/01/20 02:30:56;;;;;;;13.43;12.63;;;;;;;;;;10311439;28;20038;-75
2024/01/20 02:35:57;;;;;;;10.32;9.60;;;;;;;;;;10360148;28;20101;-77
2024/01/20 02:40:57;;;;;;;8.63;7.93;;;;;;;;;;10379962;28;20030;-75
2024/01/20 02:45:57;;;;;;;10.65;9.80;;;;;;;;;;10381106;28;20018;-75
2024/01/20 02:50:57;;;;;;;11.98;11.27;;;;;;;;;;10371659;28;20023;-75
2024/01/20 02:55:58;;;;;;;10.13;9.52;;;;;;;;;;10299107;28;20378;-76
2024/01/20 03:01:00;;;;;;;16.17;15.18;;;;;;;;;;10380395;28;20022;-74
2024/01/20 03:06:01;;;;;;;14.55;13.75;;;;;;;;;;10380589;28;20030;-75
2024/01/20 03:11:01;;;;;;;13.65;12.85;;;;;;;;;;10379361;28;20119;-75
2024/01/20 03:16:01;;;;;;;11.98;11.27;;;;;;;;;;10380120;28;20203;-75
2024/01/20 03:21:01;;;;;;;14.65;13.88;;;;;;;;;;10379706;28;20040;-75
2024/01/20 03:26:05;;;;;;;13.02;12.15;;;;;;;;;;10325970;28;20114;-74
2024/01/20 03:31:05;;;;;;;10.95;10.25;;;;;;;;;;10375986;28;20062;-75
2024/01/20 03:36:06;;;;;;;10.10;9.43;;;;;;;;;;10379019;28;20052;-76
2024/01/20 03:41:06;;;;;;;10.57;9.83;;;;;;;;;;10300032;28;20260;-74
2024/01/20 03:46:06;;;;;;;10.80;10.00;;;;;;;;;;10376461;28;20021;-75
2024/01/20 03:51:07;;;;;;;10.68;9.98;;;;;;;;;;10378099;28;20662;-76
2024/01/20 03:56:07;;;;;;;13.15;12.25;;;;;;;;;;10378197;28;20024;-76
2024/01/20 04:01:07;;;;;;;13.80;12.90;;;;;;;;;;10378229;28;20292;-75
2024/01/20 04:06:07;;;;;;;15.77;14.70;;;;;;;;;;10378463;28;20088;-76
2024/01/20 04:11:08;;;;;;;14.35;13.25;;;;;;;;;;10376600;28;20041;-75
2024/01/20 04:16:08;;;;;;;9.82;9.07;;;;;;;;;;10377221;28;20025;-75
2024/01/20 04:21:08;;;;;;;11.98;10.82;;;;;;;;;;10376847;28;20040;-75
2024/01/20 04:26:08;;;;;;;14.13;13.13;;;;;;;;;;10377224;28;20241;-76
2024/01/20 04:31:09;;;;;;;8.88;8.18;;;;;;;;;;10377142;28;20181;-76
2024/01/20 04:36:09;;;;;;;9.52;8.82;;;;;;;;;;10377047;28;20050;-75
2024/01/20 04:41:09;;;;;;;9.30;8.60;;;;;;;;;;10372849;28;20332;-75
2024/01/20 04:46:09;;;;;;;14.80;13.73;;;;;;;;;;10362106;28;20271;-73
2024/01/20 04:51:10;;;;;;;9.33;8.53;;;;;;;;;;10362667;28;20010;-74
2024/01/20 04:56:10;;;;;;;12.10;11.18;;;;;;;;;;10353620;28;20331;-75
2024/01/20 05:01:10;;;;;;;9.43;8.55;;;;;;;;;;10371905;28;20304;-75
2024/01/20 05:06:10;;;;;;;13.70;12.68;;;;;;;;;;10352819;28;20377;-77
2024/01/20 05:11:11;;;;;;;11.33;10.40;;;;;;;;;;10350964;28;20021;-78
2024/01/20 05:16:11;;;;;;;10.07;9.27;;;;;;;;;;10364312;28;20320;-75
2024/01/20 05:21:12;;;;;;;14.17;13.10;;;;;;;;;;10370729;28;20033;-77
2024/01/20 05:26:12;;;;;;;16.67;15.48;;;;;;;;;;10347875;28;20039;-77
2024/01/20 05:31:12;;;;;;;13.30;12.38;;;;;;;;;;10370637;28;20323;-76
2024/01/20 05:36:12;;;;;;;24.10;22.92;;;;;;;;;;10330941;28;20100;-77
2024/01/20 05:41:13;;;;;;;13.20;12.50;;;;;;;;;;10379610;28;20033;-77
2024/01/20 05:46:13;;;;;;;18.20;17.27;;;;;;;;;;10382323;28;20231;-76
2024/01/20 05:51:13;;;;;;;15.32;14.40;;;;;;;;;;10383055;28;20022;-74
2024/01/20 05:56:13;;;;;;;14.95;14.25;;;;;;;;;;10345904;28;20025;-77
2024/01/20 06:01:14;;;;;;;13.23;12.52;;;;;;;;;;10381185;28;20021;-77
2024/01/20 06:06:14;;;;;;;10.73;9.98;;;;;;;;;;10382365;28;20084;-76
2024/01/20 06:11:14;;;;;;;17.40;16.40;;;;;;;;;;10347282;28;20320;-77
2024/01/20 06:16:14;;;;;;;13.98;13.23;;;;;;;;;;10380102;28;20032;-76
2024/01/20 06:21:21;;;;;;;19.42;18.38;;;;;;;;;;10353131;28;20034;-76
2024/01/20 06:26:22;;;;;;;19.17;18.07;;;;;;;;;;10381759;28;20029;-77
2024/01/20 06:31:22;;;;;;;13.98;13.23;;;;;;;;;;10380920;28;20018;-77
2024/01/20 06:36:25;;;;;;;13.40;12.65;;;;;;;;;;10354214;28;20346;-76
2024/01/20 06:41:25;;;;;;;16.33;15.43;;;;;;;;;;10322643;28;20312;-79
2024/01/20 06:46:25;;;;;;;14.85;14.00;;;;;;;;;;10351476;28;20291;-78
2024/01/20 06:51:27;;;;;;;10.98;10.27;;;;;;;;;;10381107;28;20018;-78
2024/01/20 06:56:27;;;;;;;10.57;9.80;;;;;;;;;;10365468;28;20106;-79
2024/01/20 07:01:27;;;;;;;13.88;12.98;;;;;;;;;;10370234;28;20096;-77
2024/01/20 07:06:27;;;;;;;18.02;17.00;;;;;;;;;;10377166;28;20254;-76
2024/01/20 07:11:27;;;;;;;12.35;11.55;;;;;;;;;;10367627;28;20093;-77
2024/01/20 07:16:28;;;;;;;15.43;14.52;;;;;;;;;;10362679;28;20113;-77
2024/01/20 07:21:28;;;;;;;10.43;9.80;;;;;;;;;;10374474;28;20026;-79
2024/01/20 07:26:29;;;;;;;11.32;10.52;;;;;;;;;;10375817;28;20025;-78
2024/01/20 07:31:29;;;;;;;16.10;14.98;;;;;;;;;;10451279;22;20583;-76
2024/01/20 07:36:29;;;;;;;11.00;10.30;;;;;;;;;;10448647;28;20467;-76
2024/01/20 07:41:29;;;;;;;11.23;10.43;;;;;;;;;;10448803;28;20025;-77
2024/01/20 07:46:29;;;;;;;13.37;12.47;;;;;;;;;;10437489;28;20510;-79
2024/01/20 07:51:30;;;;;;;11.40;10.70;;;;;;;;;;10447652;28;20275;-80
2024/01/20 07:56:30;;;;;;;18.05;16.73;;;;;;;;;;10432271;28;20090;-79
2024/01/20 08:01:31;;;;;;;15.30;14.10;;;;;;;;;;10405796;28;20024;-80
2024/01/20 08:06:31;;;;;;;21.48;19.67;;;;;;;;;;10417328;28;20498;-82
2024/01/20 08:11:31;;;;;;;16.90;15.93;;;;;;;;;;10400636;28;20029;-74
2024/01/20 08:16:31;;;;;;;15.45;14.40;;;;;;;;;;10470172;22;20058;-76
2024/01/20 08:21:31;;;;;;;24.45;22.83;;;;;;;;;;10455256;28;20394;-79
2024/01/20 08:26:32;;;;;;;12.70;11.80;;;;;;;;;;10454138;28;20020;-78
2024/01/20 08:31:32;;;;;;;18.10;16.77;;;;;;;;;;10455045;28;20025;-74
2024/01/20 08:36:32;;;;;;;49.50;41.88;;;;;;;;;;10455068;28;20043;-76
2024/01/20 08:41:32;;;;;;;20.88;19.13;;;;;;;;;;10456460;28;20016;-78
2024/01/20 08:46:33;;;;;;;13.55;12.35;;;;;;;;;;10454329;28;20021;-76
2024/01/20 08:51:33;;;;;;;16.70;15.52;;;;;;;;;;10454745;28;20021;-81
2024/01/20 08:56:33;;;;;;;13.10;12.30;;;;;;;;;;10452641;28;20580;-74
2024/01/20 09:01:33;;;;;;;12.57;11.57;;;;;;;;;;10454502;28;20023;-74
2024/01/20 09:06:34;;;;;;;14.38;13.15;;;;;;;;;;10462550;28;20024;-78
2024/01/20 09:11:34;;;;;;;21.05;19.42;;;;;;;;;;10441185;28;20017;-76
2024/01/20 09:16:34;;;;;;;15.30;14.43;;;;;;;;;;10431465;28;20053;-76
2024/01/20 09:21:34;;;;;;;9.93;9.38;;;;;;;;;;10432194;28;20163;-78
2024/01/20 09:26:34;;;;;;;11.55;10.73;;;;;;;;;;10452051;28;20029;-76
2024/01/20 09:31:35;;;;;;;12.52;11.65;;;;;;;;;;10456246;28;20032;-77
2024/01/20 09:36:35;;;;;;;8.68;8.02;;;;;;;;;;10432299;28;20386;-76
2024/01/20 09:41:35;;;;;;;17.60;16.33;;;;;;;;;;10446993;28;20096;-76
2024/01/20 09:46:37;;;;;;;14.75;13.63;;;;;;;;;;10432608;28;20034;-81
2024/01/20 09:51:53;;;;;;;12.15;11.45;;;;;;;;;;10457134;28;20009;-80
2024/01/20 09:56:53;;;;;;;16.30;15.30;;;;;;;;;;10430715;28;20032;-83
2024/01/20 10:01:54;;;;;;;17.77;16.35;;;;;;;;;;10432379;28;20012;-76
2024/01/20 10:06:55;;;;;;;18.93;17.80;;;;;;;;;;10463561;28;20039;-81
2024/01/20 10:11:56;;;;;;;21.60;20.45;;;;;;;;;;10416552;28;20354;-80
2024/01/20 10:16:56;;;;;;;26.10;24.40;;;;;;;;;;10438026;28;20536;-76
2024/01/20 10:21:56;;;;;;;23.10;21.90;;;;;;;;;;10422123;28;20098;-76
2024/01/20 10:26:59;;;;;;;18.55;16.95;;;;;;;;;;10444811;28;20033;-80
2024/01/20 10:31:59;;;;;;;20.73;19.75;;;;;;;;;;10434423;28;20013;-76
2024/01/20 10:37:01;;;;;;;27.63;26.00;;;;;;;;;;10429669;28;20029;-76
2024/01/20 10:42:04;;;;;;;20.88;19.55;;;;;;;;;;10450817;28;20451;-80
2024/01/20 10:47:09;;;;;;;633.65;79.07;;;;;;;;;;10434734;28;20009;-79
2024/01/20 10:52:09;;;;;;;584.50;64.90;;;;;;;;;;10438496;28;20077;-77
2024/01/20 10:57:10;;;;;;;688.60;128.10;;;;;;;;;;10427156;28;20091;-77
2024/01/20 11:02:11;;;;;;;677.10;112.32;;;;;;;;;;10440287;28;20016;-77
2024/01/20 11:07:12;;;;;;;579.58;62.67;;;;;;;;;;10439570;28;20016;-76
2024/01/20 11:12:12;;;;;;;603.13;66.55;;;;;;;;;;10440135;28;20062;-78
2024/01/20 11:17:13;;;;;;;665.03;101.25;;;;;;;;;;10430407;28;20060;-81
2024/01/20 11:22:29;;;;;;;594.30;65.45;;;;;;;;;;10450893;28;20016;-80
2024/01/20 11:27:30;;;;;;;623.40;68.93;;;;;;;;;;10415770;28;20025;-77
2024/01/20 11:32:30;;;;;;;632.22;79.28;;;;;;;;;;10440847;28;20043;-79
2024/01/20 11:37:31;;;;;;;655.60;91.65;;;;;;;;;;10452120;28;20515;-81
2024/01/20 11:42:33;;;;;;;690.72;186.07;;;;;;;;;;10438990;28;20479;-77
2024/01/20 11:47:34;;;;;;;692.90;188.82;;;;;;;;;;10419168;28;20031;-76
2024/01/20 11:52:35;;;;;;;729.70;330.70;;;;;;;;;;10432736;28;20019;-80
2024/01/20 11:57:35;;;;;;;756.88;398.60;;;;;;;;;;10431152;28;20025;-77
2024/01/20 12:02:35;;;;;;;730.17;312.60;;;;;;;;;;10435929;28;20024;-75
2024/01/20 12:07:35;;;;;;;736.55;416.17;;;;;;;;;;10425454;28;20021;-80
2024/01/20 12:12:36;;;;;;;711.38;291.67;;;;;;;;;;10417502;28;20022;-80
2024/01/20 12:17:36;;;;;;;702.72;229.82;;;;;;;;;;10421756;28;20052;-76
2024/01/20 12:22:37;;;;;;;708.85;264.58;;;;;;;;;;10438021;28;20027;-81
2024/01/20 12:27:37;;;;;;;684.58;181.18;;;;;;;;;;10426797;28;20379;-77
2024/01/20 12:32:37;;;;;;;709.20;214.48;;;;;;;;;;10417588;28;20024;-77
2024/01/20 12:37:38;;;;;;;662.50;118.90;;;;;;;;;;10433504;28;20458;-81
2024/01/20 12:42:38;;;;;;;667.90;131.57;;;;;;;;;;10425819;28;20031;-77
2024/01/20 12:47:38;;;;;;;646.20;88.43;;;;;;;;;;10453959;28;20027;-77
2024/01/20 12:52:39;;;;;;;546.28;58.17;;;;;;;;;;10434132;28;20823;-80
2024/01/20 12:57:40;;;;;;;600.17;68.60;;;;;;;;;;10444720;28;20099;-77
2024/01/20 13:02:40;;;;;;;625.30;87.95;;;;;;;;;;10430612;28;20104;-76
2024/01/20 13:07:40;;;;;;;641.15;85.43;;;;;;;;;;10441226;28;20029;-80
2024/01/20 13:12:41;;;;;;;7.57;2.78;;;;;;;;;;10430755;28;20020;-81
2024/01/20 13:17:44;;;;;;;4.57;0.03;;;;;;;;;;10436224;28;20048;-79
2024/01/20 13:22:44;;;;;;;2.83;2.30;;;;;;;;;;10442883;28;20029;-77
2024/01/20 13:27:44;;;;;;;4.18;3.60;;;;;;;;;;10433589;28;20398;-76
2024/01/20 13:32:44;;;;;;;5.30;4.90;;;;;;;;;;10429915;28;20507;-74
2024/01/20 13:37:45;;;;;;;6.18;5.60;;;;;;;;;;10419622;28;20025;-81
2024/01/20 13:42:45;;;;;;;0.00;0.00;;;;;;;;;;10439510;28;20039;-76
2024/01/20 13:47:45;;;;;;;25.00;22.98;;;;;;;;;;10458270;28;20043;-75
2024/01/20 13:52:45;;;;;;;21.67;20.20;;;;;;;;;;10452720;28;20055;-76
2024/01/20 13:57:46;;;;;;;14.60;13.50;;;;;;;;;;10428814;28;20025;-79
2024/01/20 14:02:46;;;;;;;24.33;22.73;;;;;;;;;;10448492;28;20048;-81
2024/01/20 14:07:47;;;;;;;22.83;21.25;;;;;;;;;;10432653;28;20031;-80
2024/01/20 14:12:50;;;;;;;23.27;21.85;;;;;;;;;;10400699;28;20025;-81
2024/01/20 14:17:50;;;;;;;23.55;21.40;;;;;;;;;;10437781;28;20056;-77
2024/01/20 14:22:51;;;;;;;21.40;19.85;;;;;;;;;;10460355;28;20094;-75
2024/01/20 14:27:52;;;;;;;17.95;16.55;;;;;;;;;;10432976;28;20088;-80
2024/01/20 14:32:52;;;;;;;24.83;23.10;;;;;;;;;;10442035;28;20052;-75
2024/01/20 14:37:53;;;;;;;23.70;21.90;;;;;;;;;;10439113;28;20036;-82
2024/01/20 14:42:53;;;;;;;17.75;16.27;;;;;;;;;;10455898;28;20032;-76
2024/01/20 14:47:53;;;;;;;25.75;19.65;;;;;;;;;;10441700;28;20025;-77
2024/01/20 14:52:53;;;;;;;0.00;0.00;;;;;;;;;;10422675;28;20044;-75
2024/01/20 14:57:55;;;;;;;0.00;0.00;;;;;;;;;;10419727;28;20028;-77
2024/01/20 15:02:55;;;;;;;12.35;5.88;;;;;;;;;;10437988;28;20043;-76
2024/01/20 15:07:56;;;;;;;0.00;0.00;;;;;;;;;;10418159;28;20031;-80
2024/01/20 15:12:56;;;;;;;4.00;2.08;;;;;;;;;;10425581;28;20017;-75
2024/01/20 15:17:57;;;;;;;7.22;6.63;;;;;;;;;;10338808;28;20517;-77
2024/01/20 15:22:57;;;;;;;4.20;3.83;;;;;;;;;;10310929;28;20022;-76
2024/01/20 15:27:57;;;;;;;0.00;0.00;;;;;;;;;;10331283;28;20045;-80
2024/01/20 15:32:58;;;;;;;5.95;5.47;;;;;;;;;;10334742;28;20549;-76
2024/01/20 15:37:58;;;;;;;5.43;5.05;;;;;;;;;;10317258;28;20025;-77
2024/01/20 15:42:59;;;;;;;5.95;5.38;;;;;;;;;;10325927;28;20010;-78
2024/01/20 15:47:59;;;;;;;35.42;20.63;;;;;;;;;;10333887;28;20017;-76
2024/01/20 15:52:59;;;;;;;26.20;24.40;;;;;;;;;;10331320;28;20029;-81
2024/01/20 15:57:59;;;;;;;16.73;15.30;;;;;;;;;;10342920;28;20137;-80
2024/01/20 16:03:00;;;;;;;14.68;13.32;;;;;;;;;;10356102;28;20022;-77
2024/01/20 16:08:02;;;;;;;17.13;15.38;;;;;;;;;;10338082;28;20027;-79
2024/01/20 16:13:03;;;;;;;0.00;0.00;;;;;;;;;;10330188;28;20029;-76
2024/01/20 16:18:05;;;;;;;3.20;0.00;;;;;;;;;;10357150;28;20410;-82
2024/01/20 16:23:05;;;;;;;8.88;2.30;;;;;;;;;;10361487;28;20081;-80
2024/01/20 16:28:05;;;;;;;0.00;0.00;;;;;;;;;;10319591;28;20087;-78
2024/01/20 16:33:05;;;;;;;18.52;3.40;;;;;;;;;;10361072;28;20304;-78
2024/01/20 16:38:05;;;;;;;3.92;3.65;;;;;;;;;;10349051;28;20029;-84
2024/01/20 16:43:06;;;;;;;0.00;0.00;;;;;;;;;;10360152;28;20040;-77
2024/01/20 16:48:06;;;;;;;0.00;0.00;;;;;;;;;;10357945;28;20018;-75
2024/01/20 16:53:07;;;;;;;0.00;0.00;;;;;;;;;;10315488;28;20787;-76
2024/01/20 16:58:07;;;;;;;1.85;1.65;;;;;;;;;;10360784;28;20434;-78
2024/01/20 17:03:07;;;;;;;0.00;0.00;;;;;;;;;;10361152;28;20089;-77
2024/01/20 17:08:07;;;;;;;0.30;0.00;;;;;;;;;;10343088;28;20025;-76
2024/01/20 17:13:08;;;;;;;0.00;0.00;;;;;;;;;;10367761;28;20530;-75
2024/01/20 17:18:10;;;;;;;13.75;12.50;;;;;;;;;;10431854;28;20113;-78
2024/01/20 17:23:11;;;;;;;11.75;10.52;;;;;;;;;;10442386;28;20083;-77
2024/01/20 17:28:11;;;;;;;11.25;10.05;;;;;;;;;;10449043;28;20035;-74
2024/01/20 17:33:12;;;;;;;11.87;10.57;;;;;;;;;;10425086;28;20021;-80
2024/01/20 17:38:13;;;;;;;12.70;11.52;;;;;;;;;;10426661;28;20025;-78
2024/01/20 17:43:13;;;;;;;11.00;10.05;;;;;;;;;;10445499;28;20013;-82
2024/01/20 17:48:13;;;;;;;12.52;11.32;;;;;;;;;;10431725;28;20025;-75
2024/01/20 17:53:14;;;;;;;14.57;13.07;;;;;;;;;;10430712;28;20025;-87
2024/01/20 17:58:14;;;;;;;30.45;15.30;;;;;;;;;;10422027;28;20103;-79
2024/01/20 18:03:15;;;;;;;15.98;14.80;;;;;;;;;;10421388;28;20047;-79
2024/01/20 18:08:15;;;;;;;15.45;14.07;;;;;;;;;;10433207;28;20019;-76
2024/01/20 18:13:16;;;;;;;17.90;16.23;;;;;;;;;;10449086;28;20490;-81
2024/01/20 18:18:16;;;;;;;12.68;11.60;;;;;;;;;;10363634;28;20079;-76
2024/01/20 18:23:16;;;;;;;17.35;15.88;;;;;;;;;;10372609;28;20022;-78
2024/01/20 18:28:17;;;;;;;12.80;11.65;;;;;;;;;;10404834;28;20024;-79
2024/01/20 18:33:17;;;;;;;20.23;18.35;;;;;;;;;;10415263;28;20014;-77
2024/01/20 18:38:18;;;;;;;15.20;14.00;;;;;;;;;;10410229;28;20032;-80
2024/01/20 18:43:18;;;;;;;18.45;16.85;;;;;;;;;;10404520;28;20029;-76
2024/01/20 18:48:19;;;;;;;14.95;13.75;;;;;;;;;;10398222;28;20021;-77
2024/01/20 18:53:21;;;;;;;16.05;15.02;;;;;;;;;;10393386;28;20479;-80
2024/01/20 18:58:22;;;;;;;27.63;25.90;;;;;;;;;;10389868;28;20022;-82
2024/01/20 19:03:22;;;;;;;26.23;24.52;;;;;;;;;;10415560;28;20044;-76
2024/01/20 19:08:22;;;;;;;23.58;22.08;;;;;;;;;;10352322;28;20021;-80
2024/01/20 19:13:22;;;;;;;20.02;18.80;;;;;;;;;;10394004;28;20021;-75
2024/01/20 19:18:23;;;;;;;18.60;17.45;;;;;;;;;;10429866;28;20073;-77
2024/01/20 19:23:23;;;;;;;16.42;15.27;;;;;;;;;;10427766;28;20471;-75
2024/01/20 19:28:23;;;;;;;18.55;17.20;;;;;;;;;;10440510;28;20407;-75
2024/01/20 19:33:24;;;;;;;20.27;19.00;;;;;;;;;;10458066;28;20099;-76
2024/01/20 19:38:24;;;;;;;23.42;21.48;;;;;;;;;;10427333;28;20529;-76
2024/01/20 19:43:24;;;;;;;16.35;14.98;;;;;;;;;;10426708;28;20379;-76
2024/01/20 19:48:24;;;;;;;2.80;2.45;;;;;;;;;;10428909;28;20490;-75
2024/01/20 19:53:25;;;;;;;0.00;0.00;;;;;;;;;;10410559;28;20483;-77
2024/01/20 19:58:25;;;;;;;21.15;19.35;;;;;;;;;;10435084;28;20017;-74
2024/01/20 20:03:27;;;;;;;13.75;12.57;;;;;;;;;;10438025;28;20065;-76
2024/01/20 20:08:27;;;;;;;20.73;19.10;;;;;;;;;;10437180;28;20037;-76
2024/01/20 20:13:28;;;;;;;16.33;15.00;;;;;;;;;;10430874;28;20008;-76
2024/01/20 20:18:29;;;;;;;13.68;12.45;;;;;;;;;;10424693;28;20149;-79
2024/01/20 20:23:31;;;;;;;22.65;20.58;;;;;;;;;;10458301;22;20366;-83
2024/01/20 20:28:48;;;;;;;15.95;14.32;;;;;;;;;;10442283;28;20123;-88
2024/01/20 20:33:50;;;;;;;16.48;15.05;;;;;;;;;;10458104;28;20075;-89
2024/01/20 20:38:53;;;;;;;13.35;12.13;;;;;;;;;;10465729;28;20025;-93
2024/01/20 20:43:53;;;;;;;12.00;10.88;;;;;;;;;;10474359;28;20031;-91
2024/01/20 20:48:54;;;;;;;13.33;12.10;;;;;;;;;;10467883;28;20318;-93
2024/01/20 20:53:55;;;;;;;24.50;22.45;;;;;;;;;;10449399;28;20585;-87
2024/01/20 20:58:55;;;;;;;19.40;17.65;;;;;;;;;;10449856;28;20024;-87
2024/01/20 21:04:04;;;;;;;16.63;15.07;;;;;;;;;;10467266;28;20072;-89
2024/01/20 21:32:30;;;;;;;15.85;14.52;;;;;;;;;;10510364;28;20060;-87
2024/01/20 21:37:31;;;;;;;;;;;;;;;;;;10467782;28;20025;-80
2024/01/20 21:42:31;;;;;;;19.35;17.60;;;;;;;;;;10445425;28;19975;-79
2024/01/20 21:47:31;;;;;;;20.42;18.45;;;;;;;;;;10446134;28;20029;-80
2024/01/20 21:52:32;;;;;;;21.85;19.95;;;;;;;;;;10477701;28;20080;-82
2024/01/20 21:57:32;;;;;;;16.33;14.85;;;;;;;;;;10476200;28;20013;-81
2024/01/20 22:02:33;;;;;;;18.20;16.35;;;;;;;;;;10476550;28;20016;-79
2024/01/20 22:07:33;;;;;;;14.82;13.23;;;;;;;;;;10482601;28;20031;-81
2024/01/20 22:12:34;;;;;;;12.88;11.50;;;;;;;;;;10498444;28;20023;-81
2024/01/20 22:17:37;;;;;;;19.65;17.77;;;;;;;;;;10496857;28;20044;-79
2024/01/20 22:22:38;;;;;;;16.02;14.20;;;;;;;;;;10479739;28;20128;-78
2024/01/20 22:27:38;;;;;;;17.52;15.77;;;;;;;;;;10497363;28;20357;-78
2024/01/20 22:32:41;;;;;;;13.47;11.70;;;;;;;;;;10477971;28;20183;-83
2024/01/20 22:37:41;;;;;;;11.35;10.07;;;;;;;;;;10477831;28;20313;-78
2024/01/20 22:42:44;;;;;;;15.10;13.48;;;;;;;;;;10495694;28;20066;-81
2024/01/20 22:47:44;;;;;;;15.25;13.70;;;;;;;;;;10477308;28;20425;-80
2024/01/20 22:52:46;;;;;;;17.05;14.93;;;;;;;;;;10477210;28;20198;-79
2024/01/20 22:57:47;;;;;;;14.38;13.00;;;;;;;;;;10476787;28;20024;-79
2024/01/20 23:02:48;;;;;;;16.60;14.85;;;;;;;;;;10480457;28;20334;-82
2024/01/20 23:07:49;;;;;;;18.88;17.05;;;;;;;;;;10480906;28;20318;-79
2024/01/20 23:12:49;;;;;;;17.13;15.38;;;;;;;;;;10476157;28;20229;-78
2024/01/20 23:17:49;;;;;;;19.20;17.40;;;;;;;;;;10495664;28;20210;-79
2024/01/20 23:22:49;;;;;;;6.32;3.60;;;;;;;;;;10478248;28;20044;-81
2024/01/20 23:27:49;;;;;;;3.70;2.38;;;;;;;;;;10454822;22;20541;-78
2024/01/20 23:38:35;;;;;;;12.73;11.40;;;;;;;;;;10408247;28;20297;-78
2024/01/20 23:43:44;;;;;;;1.35;1.25;;;;;;;;;;10416340;28;20033;-79
2024/01/20 23:48:44;;;;;;;0.00;0.00;;;;;;;;;;10412336;28;20025;-77
2024/01/20 23:53:45;;;;;;;12.25;10.05;;;;;;;;;;10431004;28;20029;-78
2024/01/20 23:58:46;;;;;;;2.38;1.35;;;;;;;;;;10413648;28;20040;-78
